createdAt,value
2022-08-12T00:00:42.287Z,118
2022-08-12T00:04:45.086Z,118
2022-08-12T00:06:46.990Z,118
2022-08-12T00:08:47.907Z,118
2022-08-12T00:10:49.424Z,118
2022-08-12T00:14:52.207Z,118
2022-08-12T00:17:03.051Z,118
2022-08-12T00:18:55.560Z,118
2022-08-12T00:19:39.293Z,117
2022-08-12T00:21:40.664Z,118
2022-08-12T00:25:51.119Z,118
2022-08-12T00:27:45.084Z,118
2022-08-12T00:29:48.071Z,118
2022-08-12T00:31:47.770Z,118
2022-08-12T00:33:51.796Z,118
2022-08-12T00:35:50.557Z,118
2022-08-12T00:37:52.150Z,118
2022-08-12T00:39:53.608Z,118
2022-08-12T00:41:54.986Z,118
2022-08-12T00:43:56.528Z,118
2022-08-12T00:45:57.577Z,118
2022-08-12T00:50:00.185Z,118
2022-08-12T00:52:01.331Z,118
2022-08-12T00:56:04.597Z,118
2022-08-12T00:58:05.793Z,118
2022-08-12T01:02:10.859Z,118
2022-08-12T01:04:08.999Z,118
2022-08-12T01:06:10.209Z,118
2022-08-12T01:08:11.596Z,118
2022-08-12T01:14:15.675Z,118
2022-08-12T01:16:17.300Z,118
2022-08-12T01:18:18.386Z,118
2022-08-12T01:20:19.743Z,118
2022-08-12T01:24:28.061Z,118
2022-08-12T01:26:23.869Z,118
2022-08-12T01:28:25.642Z,118
2022-08-12T01:30:26.706Z,118
2022-08-12T01:34:36.083Z,118
2022-08-12T01:36:31.258Z,118
2022-08-12T01:38:32.981Z,118
2022-08-12T01:40:37.755Z,118
2022-08-12T01:42:35.614Z,118
2022-08-12T01:44:36.767Z,118
2022-08-12T01:46:38.460Z,118
2022-08-12T01:50:43.077Z,118
2022-08-12T01:52:42.236Z,118
2022-08-12T01:54:43.584Z,118
2022-08-12T01:56:44.650Z,118
2022-08-12T01:58:45.600Z,118
2022-08-12T02:00:55.084Z,118
2022-08-12T02:02:47.576Z,118
2022-08-12T02:04:49.490Z,118
2022-08-12T02:06:50.970Z,118
2022-08-12T02:12:54.810Z,118
2022-08-12T02:16:58.334Z,118
2022-08-12T02:18:59.921Z,118
2022-08-12T02:21:01.517Z,118
2022-08-12T02:23:02.633Z,118
2022-08-12T02:25:04.176Z,118
2022-08-12T02:27:05.842Z,118
2022-08-12T02:29:07.776Z,118
2022-08-12T02:31:09.518Z,118
2022-08-12T02:33:10.876Z,118
2022-08-12T02:35:12.675Z,118
2022-08-12T02:37:14.280Z,118
2022-08-12T02:39:15.822Z,118
2022-08-12T02:41:17.124Z,118
2022-08-12T02:43:18.644Z,118
2022-08-12T02:45:20.446Z,118
2022-08-12T02:49:23.206Z,118
2022-08-12T02:51:25.049Z,118
2022-08-12T02:53:26.602Z,118
2022-08-12T02:57:30.054Z,118
2022-08-12T02:59:31.336Z,118
2022-08-12T03:01:33.203Z,118
2022-08-12T03:05:38.408Z,118
2022-08-12T03:07:46.664Z,118
2022-08-12T03:11:42.271Z,118
2022-08-12T03:13:41.275Z,118
2022-08-12T03:15:42.220Z,118
2022-08-12T03:17:43.721Z,118
2022-08-12T03:20:08.916Z,118
2022-08-12T03:23:46.858Z,118
2022-08-12T03:25:48.101Z,118
2022-08-12T03:27:49.999Z,118
2022-08-12T03:29:51.502Z,118
2022-08-12T03:31:51.867Z,118
2022-08-12T03:34:01.153Z,118
2022-08-12T03:37:55.598Z,119
2022-08-12T03:39:57.065Z,118
2022-08-12T03:41:58.504Z,119
2022-08-12T03:44:00.172Z,119
2022-08-12T03:48:03.129Z,119
2022-08-12T03:50:04.695Z,119
2022-08-12T03:52:05.909Z,119
2022-08-12T03:54:07.296Z,119
2022-08-12T03:58:10.421Z,119
2022-08-12T04:00:11.355Z,119
2022-08-12T04:02:12.796Z,119
2022-08-12T04:04:14.335Z,119
2022-08-12T04:06:16.010Z,119
2022-08-12T04:08:17.483Z,119
2022-08-12T04:10:19.402Z,119
2022-08-12T04:14:21.806Z,119
2022-08-12T04:16:23.272Z,119
2022-08-12T04:18:24.996Z,119
2022-08-12T04:20:25.950Z,119
2022-08-12T04:26:30.610Z,119
2022-08-12T04:28:31.980Z,119
2022-08-12T04:30:33.818Z,119
2022-08-12T04:34:36.369Z,119
2022-08-12T04:36:37.805Z,118
2022-08-12T04:38:39.388Z,118
2022-08-12T04:40:40.661Z,118
2022-08-12T04:42:42.196Z,118
2022-08-12T04:44:43.756Z,118
2022-08-12T04:46:44.812Z,118
2022-08-12T04:48:45.915Z,118
2022-08-12T04:50:47.821Z,118
2022-08-12T04:52:48.858Z,119
2022-08-12T04:54:50.736Z,118
2022-08-12T04:57:03.344Z,118
2022-08-12T04:58:53.243Z,118
2022-08-12T05:00:54.404Z,118
2022-08-12T05:05:00.910Z,117
2022-08-12T05:09:00.618Z,117
2022-08-12T05:11:02.058Z,360
2022-08-12T05:13:02.979Z,360
2022-08-12T05:15:11.336Z,360
2022-08-12T05:19:12.756Z,360
2022-08-12T05:21:08.749Z,360
2022-08-12T05:25:11.589Z,360
2022-08-12T05:27:12.868Z,360
2022-08-12T05:30:05.841Z,360
2022-08-12T05:31:15.974Z,360
2022-08-12T05:33:17.426Z,360
2022-08-12T05:35:18.945Z,360
2022-08-12T05:37:20.365Z,360
2022-08-12T05:39:21.964Z,360
2022-08-12T05:41:23.405Z,360
2022-08-12T05:43:25.142Z,360
2022-08-12T05:45:26.921Z,360
2022-08-12T05:47:36.625Z,360
2022-08-12T05:49:29.472Z,360
2022-08-12T05:51:41.003Z,360
2022-08-12T05:53:31.724Z,360
2022-08-12T05:55:33.457Z,360
2022-08-12T05:57:34.352Z,360
2022-08-12T06:02:08.501Z,360
2022-08-12T06:03:37.793Z,360
2022-08-12T06:05:43.310Z,360
2022-08-12T06:08:01.093Z,360
2022-08-12T06:11:59.876Z,360
2022-08-12T06:13:53.057Z,360
2022-08-12T06:15:45.707Z,360
2022-08-12T06:21:49.340Z,360
2022-08-12T06:23:50.550Z,360
2022-08-12T06:28:07.048Z,211
2022-08-12T06:30:07.654Z,211
2022-08-12T06:31:55.800Z,211
2022-08-12T06:34:00.849Z,211
2022-08-12T06:37:59.584Z,211
2022-08-12T06:40:03.787Z,211
2022-08-12T06:42:30.552Z,211
2022-08-12T06:44:05.337Z,211
2022-08-12T06:48:05.685Z,212
2022-08-12T06:50:06.767Z,212
2022-08-12T06:52:08.419Z,212
2022-08-12T06:54:09.446Z,212
2022-08-12T06:56:12.570Z,212
2022-08-12T07:00:12.917Z,212
2022-08-12T07:02:14.005Z,212
2022-08-12T07:04:35.617Z,212
2022-08-12T07:04:59.362Z,210
2022-08-12T07:07:00.481Z,212
2022-08-12T07:09:02.050Z,212
2022-08-12T07:11:03.272Z,212
2022-08-12T07:13:04.195Z,212
2022-08-12T07:15:05.189Z,212
2022-08-12T07:17:06.402Z,212
2022-08-12T07:21:08.524Z,210
2022-08-12T07:27:12.705Z,175
2022-08-12T07:29:13.531Z,175
2022-08-12T07:31:17.248Z,175
2022-08-12T07:33:15.884Z,96
2022-08-12T07:37:18.341Z,85
2022-08-12T07:41:21.015Z,158
2022-08-12T07:43:21.928Z,164
2022-08-12T07:45:23.134Z,98
2022-08-12T07:47:24.422Z,100
2022-08-12T07:49:25.822Z,90
2022-08-12T07:53:28.743Z,119
2022-08-12T07:57:31.985Z,104
2022-08-12T07:59:33.175Z,153
2022-08-12T08:03:34.996Z,142
2022-08-12T08:07:37.880Z,62
2022-08-12T08:09:39.024Z,107
2022-08-12T08:11:40.791Z,21
2022-08-12T08:13:41.993Z,12
2022-08-12T08:16:02.237Z,128
2022-08-12T08:17:44.418Z,125
2022-08-12T08:25:49.423Z,91
2022-08-12T08:29:52.094Z,144
2022-08-12T08:31:53.470Z,154
2022-08-12T08:35:55.223Z,103
2022-08-12T08:37:56.187Z,115
2022-08-12T08:39:57.641Z,155
2022-08-12T08:42:13.346Z,122
2022-08-12T08:44:00.338Z,91
2022-08-12T08:46:01.385Z,152
2022-08-12T08:48:02.457Z,67
2022-08-12T08:50:03.960Z,84
2022-08-12T08:52:05.278Z,138
2022-08-12T08:54:06.059Z,108
2022-08-12T08:56:06.993Z,88
2022-08-12T08:58:08.673Z,97
2022-08-12T09:00:10.032Z,167
2022-08-12T09:02:11.151Z,103
2022-08-12T09:08:17.904Z,152
2022-08-12T09:10:31.055Z,141
2022-08-12T09:12:25.062Z,158
2022-08-12T09:14:19.299Z,113
2022-08-12T09:16:20.715Z,128
2022-08-12T09:18:26.595Z,29
2022-08-12T09:20:27.543Z,21
2022-08-12T09:22:25.906Z,119
2022-08-12T09:24:27.762Z,153
2022-08-12T09:28:31.066Z,140
2022-08-12T09:30:40.962Z,165
2022-08-12T09:34:33.671Z,1
2022-08-12T09:38:35.250Z,132
2022-08-12T09:40:55.954Z,111
2022-08-12T09:44:39.895Z,124
2022-08-12T09:46:39.381Z,126
2022-08-12T09:48:44.708Z,116
2022-08-12T09:54:44.833Z,126
2022-08-12T09:56:57.541Z,123
2022-08-12T09:58:57.530Z,145
2022-08-12T10:00:52.334Z,174
2022-08-12T10:02:50.254Z,85
2022-08-12T10:04:51.498Z,124
2022-08-12T10:06:54.507Z,188
2022-08-12T10:08:53.606Z,187
2022-08-12T10:10:54.851Z,150
2022-08-12T10:13:07.899Z,133
2022-08-12T10:16:58.403Z,86
2022-08-12T10:18:59.484Z,63
2022-08-12T10:21:00.707Z,102
2022-08-12T10:23:01.802Z,146
2022-08-12T10:27:05.828Z,76
2022-08-12T10:29:15.688Z,139
2022-08-12T10:31:06.432Z,180
2022-08-12T10:33:17.819Z,120
2022-08-12T10:35:08.839Z,124
2022-08-12T10:37:10.821Z,151
2022-08-12T10:40:00.557Z,109
2022-08-12T10:41:18.977Z,114
2022-08-12T10:43:16.878Z,179
2022-08-12T10:45:17.262Z,183
2022-08-12T10:47:25.767Z,147
2022-08-12T10:50:02.093Z,137
2022-08-12T10:53:21.598Z,112
2022-08-12T10:57:49.373Z,141
2022-08-12T10:59:39.093Z,89
2022-08-12T11:01:50.716Z,102
2022-08-12T11:04:17.571Z,104
2022-08-12T11:07:04.273Z,102
2022-08-12T11:08:33.088Z,102
2022-08-12T11:09:42.187Z,11
2022-08-12T11:12:08.117Z,104
2022-08-12T11:16:03.155Z,90
2022-08-12T11:19:39.259Z,160
2022-08-12T11:21:51.362Z,150
2022-08-12T11:23:41.710Z,65
2022-08-12T11:31:56.463Z,28
2022-08-12T11:34:03.940Z,91
2022-08-12T11:35:50.610Z,100
2022-08-12T11:37:58.529Z,126
2022-08-12T11:41:54.117Z,111
2022-08-12T11:43:58.442Z,89
2022-08-12T11:45:56.665Z,88
2022-08-12T11:47:57.008Z,147
2022-08-12T11:49:57.969Z,131
2022-08-12T11:51:59.181Z,113
2022-08-12T11:58:09.263Z,76
2022-08-12T12:02:05.659Z,142
2022-08-12T12:04:05.673Z,68
2022-08-12T12:08:37.058Z,80
2022-08-12T12:10:09.657Z,56
2022-08-12T12:12:10.941Z,10
2022-08-12T12:14:12.456Z,93
2022-08-12T12:16:14.011Z,75
2022-08-12T12:18:14.861Z,45
2022-08-12T12:20:16.464Z,144
2022-08-12T12:24:20.801Z,102
2022-08-12T12:28:36.781Z,23
2022-08-12T12:30:25.621Z,332
2022-08-12T12:34:30.138Z,84
2022-08-12T12:36:29.248Z,14
2022-08-12T12:38:28.294Z,331
2022-08-12T12:40:29.965Z,143
2022-08-12T12:44:38.959Z,99
2022-08-12T12:46:33.922Z,120
2022-08-12T12:48:34.873Z,169
2022-08-12T12:50:42.266Z,74
2022-08-12T12:56:39.732Z,147
2022-08-12T12:58:43.314Z,126
2022-08-12T13:00:42.062Z,154
2022-08-12T13:02:43.745Z,167
2022-08-12T13:06:45.958Z,347
2022-08-12T13:08:47.718Z,102
2022-08-12T13:10:50.433Z,156
2022-08-12T13:16:52.377Z,78
2022-08-12T13:18:53.970Z,70
2022-08-12T13:20:55.896Z,96
2022-08-12T13:22:56.985Z,146
2022-08-12T13:24:57.852Z,151
2022-08-12T13:26:58.697Z,357
2022-08-12T13:29:00.185Z,146
2022-08-12T13:31:00.970Z,133
2022-08-12T13:33:02.042Z,137
2022-08-12T13:35:04.091Z,132
2022-08-12T13:37:04.472Z,180
2022-08-12T13:39:05.708Z,131
2022-08-12T13:41:11.023Z,102
2022-08-12T13:43:08.309Z,138
2022-08-12T13:45:10.039Z,168
2022-08-12T13:49:17.276Z,90
2022-08-12T13:49:56.171Z,95
2022-08-12T13:51:57.534Z,143
2022-08-12T13:54:04.904Z,133
2022-08-12T13:56:01.262Z,36
2022-08-12T13:58:01.774Z,95
2022-08-12T14:00:02.484Z,162
2022-08-12T14:04:05.223Z,100
2022-08-12T14:06:06.594Z,102
2022-08-12T14:10:09.251Z,153
2022-08-12T14:12:10.220Z,18
2022-08-12T14:14:11.717Z,88
2022-08-12T14:16:14.245Z,90
2022-08-12T14:18:14.431Z,69
2022-08-12T14:20:15.316Z,117
2022-08-12T14:22:16.577Z,91
2022-08-12T14:24:17.997Z,91
2022-08-12T14:26:20.043Z,105
2022-08-12T14:28:21.373Z,60
2022-08-12T14:32:24.141Z,131
2022-08-12T14:34:28.313Z,101
2022-08-12T14:36:26.492Z,151
2022-08-12T14:42:30.253Z,190
2022-08-12T14:44:58.303Z,26
2022-08-12T14:46:33.312Z,95
2022-08-12T14:48:34.428Z,109
2022-08-12T14:52:54.736Z,105
2022-08-12T14:57:19.679Z,115
2022-08-12T15:02:44.195Z,95
2022-08-12T15:04:45.530Z,151
2022-08-12T15:06:52.454Z,142
2022-08-12T15:08:48.201Z,131
2022-08-12T15:10:49.860Z,173
2022-08-12T15:12:50.351Z,210
2022-08-12T15:16:53.366Z,59
2022-08-12T15:18:55.091Z,103
2022-08-12T15:20:55.616Z,110
2022-08-12T15:24:58.412Z,109
2022-08-12T15:26:59.801Z,157
2022-08-12T15:29:01.334Z,128
2022-08-12T15:31:02.658Z,120
2022-08-12T15:35:07.895Z,151
2022-08-12T15:37:09.094Z,163
2022-08-12T15:39:16.648Z,90
2022-08-12T15:41:08.614Z,96
2022-08-12T15:45:11.701Z,133
2022-08-12T15:47:12.672Z,101
2022-08-12T15:49:16.570Z,157
2022-08-12T15:51:14.986Z,108
2022-08-12T15:53:16.367Z,119
2022-08-12T15:57:18.936Z,87
2022-08-12T15:59:20.477Z,104
2022-08-12T16:01:21.817Z,143
2022-08-12T16:03:25.657Z,98
2022-08-12T16:07:26.118Z,96
2022-08-12T16:09:45.532Z,180
2022-08-12T16:13:32.935Z,126
2022-08-12T16:15:35.318Z,26
2022-08-12T16:17:41.339Z,111
2022-08-12T16:20:01.988Z,119
2022-08-12T16:23:52.317Z,158
2022-08-12T16:26:00.428Z,148
2022-08-12T16:27:38.254Z,170
2022-08-12T16:29:52.766Z,137
2022-08-12T16:33:56.556Z,97
2022-08-12T16:35:43.601Z,89
2022-08-12T16:38:24.649Z,118
2022-08-12T16:40:00.444Z,137
2022-08-12T16:41:46.411Z,90
2022-08-12T16:43:47.787Z,115
2022-08-12T16:46:04.720Z,93
2022-08-12T16:47:57.997Z,99
2022-08-12T16:49:51.233Z,127
2022-08-12T16:53:53.769Z,100
2022-08-12T16:55:55.329Z,100
2022-08-12T16:57:56.577Z,109
2022-08-12T17:01:58.793Z,134
2022-08-12T17:06:00.413Z,104
2022-08-12T17:08:01.304Z,109
2022-08-12T17:10:02.573Z,119
2022-08-12T17:12:04.301Z,112
2022-08-12T17:16:10.756Z,91
2022-08-12T17:18:15.671Z,100
2022-08-12T17:20:30.054Z,134
2022-08-12T17:22:10.628Z,99
2022-08-12T17:28:16.514Z,110
2022-08-12T17:30:17.247Z,149
2022-08-12T17:32:20.658Z,144
2022-08-12T17:34:18.363Z,105
2022-08-12T17:38:21.218Z,98
2022-08-12T17:42:33.091Z,90
2022-08-12T17:44:24.875Z,104
2022-08-12T17:46:33.440Z,117
2022-08-12T17:48:34.125Z,85
2022-08-12T17:52:33.404Z,91
2022-08-12T17:54:31.667Z,122
2022-08-12T17:56:32.529Z,79
2022-08-12T18:00:38.564Z,102
2022-08-12T18:04:37.224Z,108
2022-08-12T18:06:38.478Z,106
2022-08-12T18:08:39.961Z,81
2022-08-12T18:12:42.860Z,64
2022-08-12T18:16:44.722Z,360
2022-08-12T18:20:46.726Z,121
2022-08-12T18:24:50.515Z,104
2022-08-12T18:26:51.633Z,104
2022-08-12T18:28:53.024Z,104
2022-08-12T18:30:55.914Z,104
2022-08-12T18:32:59.204Z,104
2022-08-12T18:36:58.243Z,104
2022-08-12T18:38:59.849Z,104
2022-08-12T18:43:02.179Z,104
2022-08-12T18:47:04.989Z,104
2022-08-12T18:49:16.644Z,104
2022-08-12T18:51:07.423Z,104
2022-08-12T18:53:09.045Z,104
2022-08-12T18:57:15.552Z,127
2022-08-12T18:59:12.843Z,128
2022-08-12T19:01:18.435Z,128
2022-08-12T19:03:23.758Z,128
2022-08-12T19:07:17.930Z,76
2022-08-12T19:09:19.741Z,76
2022-08-12T19:11:20.786Z,76
2022-08-12T19:13:23.581Z,76
2022-08-12T19:17:24.650Z,76
2022-08-12T19:19:26.015Z,76
2022-08-12T19:21:27.432Z,76
2022-08-12T19:23:33.985Z,76
2022-08-12T19:25:55.513Z,76
2022-08-12T19:27:32.467Z,76
2022-08-12T19:29:36.477Z,76
2022-08-12T19:31:45.573Z,76
2022-08-12T19:35:54.283Z,79
2022-08-12T19:40:07.599Z,80
2022-08-12T19:41:42.631Z,80
2022-08-12T19:45:48.450Z,151
2022-08-12T19:47:46.186Z,149
2022-08-12T19:49:47.072Z,149
2022-08-12T19:51:48.634Z,149
2022-08-12T19:53:57.131Z,112
2022-08-12T19:55:52.793Z,112
2022-08-12T20:00:03.876Z,112
2022-08-12T20:02:01.799Z,112
2022-08-12T20:03:59.422Z,112
2022-08-12T20:08:00.193Z,112
2022-08-12T20:10:02.145Z,112
2022-08-12T20:12:10.971Z,112
2022-08-12T20:14:04.814Z,112
2022-08-12T20:18:07.460Z,112
2022-08-12T20:20:17.537Z,112
2022-08-12T20:22:14.353Z,112
2022-08-12T20:24:11.856Z,112
2022-08-12T20:28:13.954Z,112
2022-08-12T20:30:14.939Z,113
2022-08-12T20:32:16.022Z,113
2022-08-12T20:35:01.544Z,112
2022-08-12T20:37:04.564Z,112
2022-08-12T20:41:05.706Z,112
2022-08-12T20:43:07.230Z,113
2022-08-12T20:45:09.024Z,144
2022-08-12T20:49:11.605Z,151
2022-08-12T20:51:15.872Z,103
2022-08-12T20:53:14.013Z,89
2022-08-12T20:55:19.186Z,123
2022-08-12T20:57:17.011Z,16
2022-08-12T20:59:19.986Z,19
2022-08-12T21:01:22.177Z,84
2022-08-12T21:05:22.027Z,84
2022-08-12T21:07:23.512Z,84
2022-08-12T21:09:25.083Z,84
2022-08-12T21:11:26.652Z,84
2022-08-12T21:13:28.502Z,84
2022-08-12T21:15:53.729Z,84
2022-08-12T21:17:33.839Z,84
2022-08-12T21:19:52.388Z,84
2022-08-12T21:23:36.857Z,84
2022-08-12T21:25:44.848Z,84
2022-08-12T21:27:58.386Z,84
2022-08-12T21:32:35.681Z,82
2022-08-12T21:33:45.806Z,84
2022-08-12T21:37:52.971Z,86
2022-08-12T21:39:50.666Z,94
2022-08-12T21:41:50.383Z,95
2022-08-12T21:43:48.982Z,98
2022-08-12T21:45:58.314Z,96
2022-08-12T21:47:53.125Z,100
2022-08-12T21:49:53.482Z,102
2022-08-12T21:51:54.062Z,102
2022-08-12T21:54:06.618Z,102
2022-08-12T21:55:57.267Z,104
2022-08-12T21:58:03.075Z,104
2022-08-12T22:00:00.127Z,104
2022-08-12T22:02:01.046Z,104
2022-08-12T22:04:11.271Z,104
2022-08-12T22:08:05.347Z,105
2022-08-12T22:10:06.874Z,105
2022-08-12T22:14:09.771Z,105
2022-08-12T22:16:11.632Z,105
2022-08-12T22:18:12.767Z,105
2022-08-12T22:20:14.153Z,105
2022-08-12T22:26:29.014Z,105
2022-08-12T22:28:24.470Z,105
2022-08-12T22:30:20.133Z,105
2022-08-12T22:36:27.998Z,105
2022-08-12T22:38:25.398Z,105
2022-08-12T22:40:26.873Z,105
2022-08-12T22:42:27.805Z,105
2022-08-12T22:46:30.633Z,105
2022-08-12T22:48:31.814Z,105
2022-08-12T22:50:33.586Z,105
2022-08-12T22:52:34.949Z,105
2022-08-12T22:54:37.437Z,105
2022-08-12T22:56:37.613Z,105
2022-08-12T22:58:40.352Z,105
2022-08-12T23:00:39.851Z,105
2022-08-12T23:02:41.571Z,105
2022-08-12T23:04:42.790Z,105
2022-08-12T23:06:44.219Z,105
2022-08-12T23:08:45.614Z,105
2022-08-12T23:10:47.344Z,105
2022-08-12T23:12:49.143Z,105
2022-08-12T23:14:50.107Z,105
2022-08-12T23:16:51.119Z,105
2022-08-12T23:18:52.792Z,105
2022-08-12T23:20:54.195Z,105
2022-08-12T23:24:57.164Z,105
2022-08-12T23:28:58.912Z,105
2022-08-12T23:31:04.500Z,105
2022-08-12T23:35:03.545Z,105
2022-08-12T23:37:04.285Z,105
2022-08-12T23:39:05.691Z,105
2022-08-12T23:41:07.523Z,105
2022-08-12T23:43:08.782Z,105
2022-08-12T23:47:11.175Z,105
2022-08-12T23:49:26.944Z,105
2022-08-12T23:51:21.859Z,105
2022-08-12T23:53:17.248Z,105
2022-08-12T23:55:24.268Z,105
2022-08-12T23:57:18.495Z,105
2022-08-12T23:59:22.779Z,105
